Time;durP1;ratioP1;P1;durP2;ratioP2;P2;SDS_P1;SDS_P2;PMS_P1;PMS_P2;Temp;Humidity;BMP_temperature;BMP_pressure;BME280_temperature;BME280_humidity;BME280_pressure;Samples;Min_cycle;Max_cycle;Signal;HPM_P1;HPM_P2
2023/07/03 00:00:17;;;;;;;17.88;9.98;;;19.20;92.00;;;;;;5052043;28;20301;-55
2023/07/03 00:02:46;;;;;;;18.95;9.88;;;19.20;92.90;;;;;;5052041;28;20296;-55
2023/07/03 00:05:13;;;;;;;18.98;9.48;;;19.20;93.50;;;;;;5052354;28;20212;-56
2023/07/03 00:07:41;;;;;;;18.10;10.00;;;19.30;93.80;;;;;;5051704;28;20225;-57
2023/07/03 00:10:09;;;;;;;18.17;9.60;;;19.20;94.30;;;;;;5052178;28;20241;-56
2023/07/03 00:12:36;;;;;;;20.73;9.95;;;19.20;94.50;;;;;;5052268;28;20209;-56
2023/07/03 00:15:03;;;;;;;15.18;9.60;;;19.10;94.90;;;;;;5051983;28;20673;-55
2023/07/03 00:17:30;;;;;;;17.55;10.55;;;19.00;95.30;;;;;;5051521;28;20237;-57
2023/07/03 00:19:58;;;;;;;18.70;10.15;;;18.90;95.60;;;;;;5052593;28;20256;-56
2023/07/03 00:22:25;;;;;;;17.23;10.20;;;18.80;95.90;;;;;;5052028;28;20660;-55
2023/07/03 00:24:51;;;;;;;13.60;9.43;;;18.80;96.10;;;;;;5051873;28;20264;-56
2023/07/03 00:27:18;;;;;;;17.60;9.88;;;18.80;96.40;;;;;;5052308;28;20225;-55
2023/07/03 00:29:45;;;;;;;13.15;9.43;;;18.80;96.60;;;;;;5051811;28;20225;-54
2023/07/03 00:32:12;;;;;;;15.50;9.05;;;18.80;96.70;;;;;;5051656;28;20209;-56
2023/07/03 00:34:38;;;;;;;15.57;9.55;;;18.80;97.10;;;;;;5051615;28;20205;-55
2023/07/03 00:37:07;;;;;;;16.63;10.10;;;18.90;97.20;;;;;;5051080;28;20669;-56
2023/07/03 00:39:33;;;;;;;15.80;9.18;;;18.90;97.20;;;;;;5051578;28;20198;-56
2023/07/03 00:42:00;;;;;;;17.05;9.70;;;19.00;97.20;;;;;;5051346;28;20209;-55
2023/07/03 00:44:27;;;;;;;16.27;9.75;;;19.00;97.30;;;;;;5051259;28;20210;-55
2023/07/03 00:46:54;;;;;;;16.08;9.52;;;19.00;97.60;;;;;;5051201;28;20255;-56
2023/07/03 00:49:21;;;;;;;16.42;9.75;;;19.00;97.60;;;;;;5051421;28;20271;-56
2023/07/03 00:51:52;;;;;;;17.67;9.18;;;19.10;97.10;;;;;;5051367;28;20681;-56
2023/07/03 00:54:21;;;;;;;15.65;8.93;;;19.20;96.60;;;;;;5051411;28;20618;-56
2023/07/03 00:56:48;;;;;;;14.38;9.38;;;19.20;96.50;;;;;;5050933;28;20237;-55
2023/07/03 00:59:15;;;;;;;14.38;9.07;;;19.40;96.30;;;;;;5051043;28;20258;-54
2023/07/03 01:01:47;;;;;;;14.35;8.80;;;19.50;96.20;;;;;;5051338;28;20201;-56
2023/07/03 01:04:18;;;;;;;17.92;9.73;;;19.60;96.10;;;;;;5051195;28;20216;-54
2023/07/03 01:06:50;;;;;;;14.82;9.05;;;19.60;96.00;;;;;;5051225;28;20225;-55
2023/07/03 01:09:21;;;;;;;15.88;9.13;;;19.60;95.90;;;;;;5050886;28;20248;-56
2023/07/03 01:11:50;;;;;;;16.13;8.80;;;19.70;95.60;;;;;;5051149;28;20221;-55
2023/07/03 01:14:20;;;;;;;20.15;9.05;;;19.70;95.00;;;;;;5051316;28;20205;-56
2023/07/03 01:16:49;;;;;;;15.07;8.18;;;19.80;94.70;;;;;;5080409;22;20232;-60
2023/07/03 01:19:29;;;;;;;15.18;8.50;;;19.90;94.00;;;;;;5090692;28;20662;-58
2023/07/03 01:22:02;;;;;;;18.23;8.27;;;19.90;93.80;;;;;;5090862;28;20642;-58
2023/07/03 01:24:34;;;;;;;13.73;8.35;;;20.00;93.70;;;;;;5091239;28;20216;-58
2023/07/03 01:27:04;;;;;;;15.23;8.70;;;20.10;93.40;;;;;;5091087;28;20228;-58
2023/07/03 01:29:32;;;;;;;15.45;8.82;;;20.20;93.40;;;;;;5090884;28;20333;-61
2023/07/03 01:32:00;;;;;;;16.95;8.52;;;20.20;93.50;;;;;;5090960;28;20200;-58
2023/07/03 01:34:28;;;;;;;13.35;8.27;;;20.30;93.30;;;;;;5090743;28;20644;-58
2023/07/03 01:36:57;;;;;;;17.25;8.65;;;20.50;93.10;;;;;;5090364;28;20571;-58
2023/07/03 01:39:24;;;;;;;14.32;8.75;;;20.60;93.10;;;;;;5090879;28;20200;-59
2023/07/03 01:41:53;;;;;;;14.23;8.38;;;20.70;92.60;;;;;;5090775;28;20228;-59
2023/07/03 01:44:20;;;;;;;16.15;8.93;;;20.80;92.30;;;;;;5090883;28;20204;-58
2023/07/03 01:46:47;;;;;;;15.40;8.82;;;20.90;91.60;;;;;;5091124;28;20224;-59
2023/07/03 01:49:15;;;;;;;15.52;8.88;;;21.00;91.30;;;;;;5090553;28;20577;-59
2023/07/03 01:51:48;;;;;;;24.55;9.13;;;21.00;90.80;;;;;;5093770;28;20212;-59
2023/07/03 01:54:23;;;;;;;19.25;8.82;;;20.90;91.10;;;;;;5094502;28;20900;-58
2023/07/03 01:56:53;;;;;;;16.75;8.90;;;20.90;90.80;;;;;;5094142;28;20230;-58
2023/07/03 01:59:24;;;;;;;14.63;8.93;;;20.80;91.00;;;;;;5094443;28;20257;-58
2023/07/03 02:01:59;;;;;;;17.33;9.13;;;20.80;91.10;;;;;;5094383;28;20204;-60
2023/07/03 02:04:29;;;;;;;16.45;9.30;;;20.80;91.10;;;;;;5094582;28;20276;-60
2023/07/03 02:06:57;;;;;;;19.30;9.63;;;20.80;91.10;;;;;;5093877;28;20228;-58
2023/07/03 02:09:25;;;;;;;15.52;9.15;;;20.80;91.20;;;;;;5094081;28;20224;-58
2023/07/03 02:11:54;;;;;;;24.00;9.73;;;20.70;91.00;;;;;;5094117;28;20519;-58
2023/07/03 02:14:20;;;;;;;16.88;8.68;;;20.70;91.20;;;;;;5094430;28;20722;-58
2023/07/03 02:16:47;;;;;;;24.17;9.38;;;20.70;91.30;;;;;;5093656;28;20243;-58
2023/07/03 02:19:15;;;;;;;15.63;8.50;;;20.70;91.40;;;;;;5094143;28;20689;-58
2023/07/03 02:21:43;;;;;;;12.80;8.50;;;20.80;91.50;;;;;;5093956;28;20215;-58
2023/07/03 02:24:11;;;;;;;15.18;9.30;;;20.90;91.30;;;;;;5093890;28;20301;-58
2023/07/03 02:26:38;;;;;;;14.15;8.40;;;20.80;90.80;;;;;;5093376;28;20215;-58
2023/07/03 02:29:06;;;;;;;16.15;8.73;;;20.80;90.90;;;;;;5093755;28;20247;-58
2023/07/03 02:31:32;;;;;;;15.63;8.98;;;20.80;90.90;;;;;;5093756;28;20610;-59
2023/07/03 02:33:59;;;;;;;15.43;8.57;;;20.70;91.00;;;;;;5093764;28;20231;-58
2023/07/03 02:36:29;;;;;;;15.30;9.27;;;20.70;91.10;;;;;;5093462;28;20211;-58
2023/07/03 02:38:57;;;;;;;13.57;8.85;;;20.70;91.00;;;;;;5093659;28;20204;-59
2023/07/03 02:41:24;;;;;;;12.85;8.65;;;20.70;91.00;;;;;;5093652;28;20208;-59
2023/07/03 02:43:51;;;;;;;17.33;8.80;;;20.70;91.50;;;;;;5093697;28;20204;-59
2023/07/03 02:46:19;;;;;;;16.70;9.02;;;20.80;91.20;;;;;;5093133;28;20200;-61
2023/07/03 02:48:46;;;;;;;14.48;8.32;;;20.80;91.10;;;;;;5093370;28;20274;-60
2023/07/03 02:51:13;;;;;;;13.85;8.52;;;20.80;91.00;;;;;;5093853;28;20232;-59
2023/07/03 02:53:39;;;;;;;16.60;8.85;;;20.90;91.10;;;;;;5093285;28;20207;-60
2023/07/03 02:56:06;;;;;;;17.10;9.55;;;20.90;90.80;;;;;;5093454;28;20402;-59
2023/07/03 02:58:33;;;;;;;15.02;9.40;;;21.00;91.00;;;;;;5093331;28;20220;-59
2023/07/03 03:01:01;;;;;;;15.10;9.00;;;21.00;90.80;;;;;;5093149;28;20208;-57
2023/07/03 03:03:29;;;;;;;15.05;8.88;;;20.90;90.80;;;;;;5092054;28;20207;-58
2023/07/03 03:05:56;;;;;;;19.17;9.48;;;20.90;91.00;;;;;;5092757;28;20211;-59
2023/07/03 03:08:24;;;;;;;17.83;10.35;;;20.90;91.00;;;;;;5092880;28;20224;-59
2023/07/03 03:10:52;;;;;;;16.75;9.45;;;20.80;91.20;;;;;;5092906;28;20243;-58
2023/07/03 03:13:19;;;;;;;14.70;9.45;;;20.80;91.10;;;;;;5093148;28;20306;-59
2023/07/03 03:15:45;;;;;;;16.75;9.30;;;20.80;91.10;;;;;;5092776;28;20254;-58
2023/07/03 03:18:12;;;;;;;17.55;10.00;;;20.80;91.20;;;;;;5092725;28;20243;-59
2023/07/03 03:20:40;;;;;;;19.70;10.95;;;20.80;91.20;;;;;;5092474;28;20653;-58
2023/07/03 03:23:07;;;;;;;23.85;14.77;;;20.80;91.20;;;;;;5092885;28;20261;-58
2023/07/03 03:25:34;;;;;;;14.57;9.30;;;20.70;91.20;;;;;;5092759;28;20200;-58
2023/07/03 03:28:00;;;;;;;18.73;9.27;;;20.70;91.20;;;;;;5092580;28;20292;-58
2023/07/03 03:30:27;;;;;;;17.25;9.88;;;20.70;91.30;;;;;;5093133;28;20285;-59
2023/07/03 03:32:54;;;;;;;14.13;8.98;;;20.70;91.40;;;;;;5092888;28;20290;-59
2023/07/03 03:35:20;;;;;;;15.82;9.45;;;20.60;91.40;;;;;;5092092;28;20208;-60
2023/07/03 03:37:48;;;;;;;15.88;8.88;;;20.60;91.60;;;;;;5092376;28;20235;-60
2023/07/03 03:40:15;;;;;;;16.38;9.57;;;20.70;91.60;;;;;;5092651;28;20253;-59
2023/07/03 03:42:42;;;;;;;16.85;9.80;;;20.80;91.50;;;;;;5092496;28;20209;-58
2023/07/03 03:45:09;;;;;;;15.32;10.18;;;20.80;91.60;;;;;;5092405;28;20200;-60
2023/07/03 03:47:36;;;;;;;17.17;9.20;;;20.80;91.40;;;;;;5091944;28;20251;-60
2023/07/03 03:50:03;;;;;;;20.10;10.95;;;20.80;91.50;;;;;;5092269;28;20568;-59
2023/07/03 03:52:29;;;;;;;15.70;9.35;;;20.80;91.50;;;;;;5092462;28;20208;-60
2023/07/03 03:54:58;;;;;;;14.60;9.40;;;20.80;91.80;;;;;;5092351;28;20625;-60
2023/07/03 03:57:25;;;;;;;17.85;10.32;;;20.80;91.90;;;;;;5091892;28;20220;-59
2023/07/03 03:59:52;;;;;;;16.83;10.02;;;20.90;91.50;;;;;;5092081;28;20261;-60
2023/07/03 04:02:18;;;;;;;14.32;8.75;;;20.90;91.80;;;;;;5091882;28;20208;-59
2023/07/03 04:04:45;;;;;;;16.05;9.88;;;21.00;91.70;;;;;;5092021;28;20681;-60
2023/07/03 04:07:12;;;;;;;15.88;9.07;;;21.10;91.40;;;;;;5091960;28;20319;-60
2023/07/03 04:09:39;;;;;;;15.93;9.38;;;21.10;91.30;;;;;;5091811;28;20224;-59
2023/07/03 04:12:08;;;;;;;16.70;10.27;;;21.20;91.10;;;;;;5091744;28;20698;-59
2023/07/03 04:14:35;;;;;;;17.23;9.88;;;21.10;91.20;;;;;;5091498;28;20259;-59
2023/07/03 04:17:01;;;;;;;16.88;8.98;;;21.20;91.40;;;;;;5091452;28;20236;-60
2023/07/03 04:19:29;;;;;;;13.90;8.60;;;21.20;91.00;;;;;;5091918;28;20204;-60
2023/07/03 04:21:56;;;;;;;17.50;9.98;;;21.30;90.80;;;;;;5092256;28;20200;-61
2023/07/03 04:24:24;;;;;;;12.57;9.00;;;21.30;90.90;;;;;;5092059;28;20268;-59
2023/07/03 04:26:54;;;;;;;14.00;9.15;;;21.30;91.00;;;;;;5091425;28;20326;-60
2023/07/03 04:29:22;;;;;;;14.20;8.73;;;21.30;91.20;;;;;;5091606;28;20318;-61
2023/07/03 04:31:48;;;;;;;13.75;8.80;;;21.30;91.10;;;;;;5091976;28;20231;-61
2023/07/03 04:34:15;;;;;;;13.27;8.68;;;21.40;90.70;;;;;;5092084;28;20242;-59
2023/07/03 04:36:43;;;;;;;17.05;9.65;;;21.40;90.90;;;;;;5091660;28;20204;-61
2023/07/03 04:39:09;;;;;;;19.90;11.13;;;21.40;91.00;;;;;;5091749;28;20687;-62
2023/07/03 04:41:36;;;;;;;14.38;8.80;;;21.40;91.00;;;;;;5091666;28;20210;-59
2023/07/03 04:44:03;;;;;;;17.08;9.05;;;21.50;90.70;;;;;;5091263;28;20211;-60
2023/07/03 04:46:31;;;;;;;14.15;9.20;;;21.50;90.80;;;;;;5090936;28;20200;-59
2023/07/03 04:49:00;;;;;;;12.90;8.40;;;21.50;90.80;;;;;;5091187;28;20220;-58
2023/07/03 04:51:30;;;;;;;13.98;8.88;;;21.50;90.80;;;;;;5091298;28;20243;-58
2023/07/03 04:53:58;;;;;;;13.95;8.43;;;21.50;90.80;;;;;;5091279;28;20257;-60
2023/07/03 04:56:25;;;;;;;15.52;8.98;;;21.60;90.90;;;;;;5090645;28;20295;-58
2023/07/03 04:58:52;;;;;;;14.30;8.32;;;21.50;90.90;;;;;;5090911;28;20212;-58
2023/07/03 05:01:19;;;;;;;14.40;9.05;;;21.60;90.80;;;;;;5091272;28;20204;-60
2023/07/03 05:03:47;;;;;;;13.00;8.55;;;21.50;91.00;;;;;;5090989;28;20216;-58
2023/07/03 05:06:14;;;;;;;16.70;8.73;;;21.50;91.00;;;;;;5091190;28;20222;-59
2023/07/03 05:08:41;;;;;;;12.15;7.93;;;21.50;91.00;;;;;;5091511;28;20231;-58
2023/07/03 05:11:07;;;;;;;15.18;8.15;;;21.50;91.00;;;;;;5091379;28;20224;-62
2023/07/03 05:13:34;;;;;;;13.18;9.13;;;21.50;91.00;;;;;;5091367;28;20212;-60
2023/07/03 05:16:01;;;;;;;14.77;8.95;;;21.60;91.10;;;;;;5090866;28;20255;-60
2023/07/03 05:18:28;;;;;;;16.67;8.57;;;21.70;91.00;;;;;;5091080;28;20259;-61
2023/07/03 05:20:56;;;;;;;16.85;8.38;;;21.80;90.70;;;;;;5091081;28;20200;-60
2023/07/03 05:23:23;;;;;;;13.30;8.30;;;21.90;90.60;;;;;;5091283;28;20227;-61
2023/07/03 05:25:50;;;;;;;17.25;8.52;;;21.90;90.50;;;;;;5092516;28;20227;-61
2023/07/03 05:28:16;;;;;;;13.10;8.15;;;22.00;90.50;;;;;;5095428;28;20224;-60
2023/07/03 05:30:43;;;;;;;15.95;8.32;;;22.00;90.20;;;;;;5095254;28;20286;-61
2023/07/03 05:33:11;;;;;;;16.63;8.13;;;22.10;90.20;;;;;;5095278;28;20208;-62
2023/07/03 05:35:38;;;;;;;14.02;7.68;;;22.00;90.00;;;;;;5095758;28;20648;-58
2023/07/03 05:38:07;;;;;;;15.45;8.57;;;22.20;90.30;;;;;;5095015;28;20235;-60
2023/07/03 05:40:34;;;;;;;17.08;8.05;;;22.30;89.90;;;;;;5095119;28;20201;-60
2023/07/03 05:43:00;;;;;;;13.65;7.10;;;22.40;89.60;;;;;;5095059;28;20231;-61
2023/07/03 05:45:27;;;;;;;10.45;7.72;;;22.40;89.50;;;;;;5095007;28;20303;-59
2023/07/03 05:47:54;;;;;;;15.32;8.25;;;22.40;89.30;;;;;;5094319;28;20764;-62
2023/07/03 05:50:20;;;;;;;14.95;8.10;;;22.50;89.00;;;;;;5094711;28;20224;-60
2023/07/03 05:52:48;;;;;;;16.23;7.72;;;22.60;88.40;;;;;;5094939;28;20219;-60
2023/07/03 05:55:16;;;;;;;13.60;7.70;;;22.70;88.30;;;;;;5094278;28;20204;-63
2023/07/03 05:57:43;;;;;;;13.27;7.45;;;22.80;87.80;;;;;;5094040;28;20228;-59
2023/07/03 06:00:13;;;;;;;14.43;7.20;;;22.90;88.00;;;;;;5093897;28;20212;-60
2023/07/03 06:02:40;;;;;;;21.70;8.30;;;23.00;87.40;;;;;;5094218;28;20250;-61
2023/07/03 06:05:08;;;;;;;17.85;7.68;;;23.10;86.80;;;;;;5094097;28;20208;-60
2023/07/03 06:07:34;;;;;;;21.15;8.05;;;23.10;86.50;;;;;;5093443;28;20348;-60
2023/07/03 06:10:01;;;;;;;17.05;7.68;;;23.20;86.30;;;;;;5094990;28;20220;-59
2023/07/03 06:12:30;;;;;;;14.50;7.07;;;23.30;85.70;;;;;;5095368;28;20230;-61
2023/07/03 06:14:57;;;;;;;12.95;7.18;;;23.40;85.40;;;;;;5095633;28;20284;-61
2023/07/03 06:17:24;;;;;;;15.32;7.57;;;23.70;85.00;;;;;;5094518;28;20289;-60
2023/07/03 06:19:52;;;;;;;16.23;7.78;;;23.80;84.60;;;;;;5095050;28;20215;-60
2023/07/03 06:22:19;;;;;;;14.55;7.15;;;23.90;83.70;;;;;;5095343;28;20208;-62
2023/07/03 06:24:46;;;;;;;14.80;7.22;;;24.10;83.60;;;;;;5095357;28;20484;-60
2023/07/03 06:27:14;;;;;;;11.77;7.00;;;24.20;82.80;;;;;;5094368;28;20730;-61
2023/07/03 06:29:42;;;;;;;15.32;7.47;;;24.20;82.40;;;;;;5094924;28;20262;-61
2023/07/03 06:32:10;;;;;;;12.40;7.10;;;24.20;82.30;;;;;;5095020;28;20208;-61
2023/07/03 06:34:38;;;;;;;10.27;6.78;;;24.30;82.60;;;;;;5094987;28;20216;-61
2023/07/03 06:37:06;;;;;;;14.60;7.95;;;24.40;82.20;;;;;;5094657;28;20270;-59
2023/07/03 06:39:33;;;;;;;16.65;7.95;;;24.50;82.20;;;;;;5093992;28;20219;-61
2023/07/03 06:42:00;;;;;;;15.20;7.70;;;24.60;81.50;;;;;;5094321;28;20656;-60
2023/07/03 06:44:27;;;;;;;16.20;7.65;;;24.60;81.80;;;;;;5093881;28;20686;-59
2023/07/03 06:46:55;;;;;;;12.48;7.07;;;24.70;80.80;;;;;;5093540;28;20232;-60
2023/07/03 06:49:24;;;;;;;11.40;7.28;;;24.70;81.10;;;;;;5094089;28;20212;-60
2023/07/03 06:51:51;;;;;;;13.88;7.60;;;24.70;80.40;;;;;;5093932;28;20224;-59
2023/07/03 06:54:18;;;;;;;12.68;6.60;;;24.70;80.20;;;;;;5094534;28;20200;-60
2023/07/03 06:56:45;;;;;;;14.52;6.97;;;24.60;80.30;;;;;;5093289;28;20232;-60
2023/07/03 06:59:11;;;;;;;15.63;7.65;;;24.60;80.70;;;;;;5093193;28;20212;-60
2023/07/03 07:01:40;;;;;;;11.75;6.80;;;24.70;80.80;;;;;;5093676;28;20291;-61
2023/07/03 07:04:09;;;;;;;13.13;7.35;;;24.70;80.00;;;;;;5093474;28;20283;-59
2023/07/03 07:06:36;;;;;;;14.07;7.28;;;24.70;80.00;;;;;;5093057;28;20257;-60
2023/07/03 07:09:03;;;;;;;17.08;7.07;;;24.70;80.00;;;;;;5093248;28;20207;-61
2023/07/03 07:11:31;;;;;;;12.73;6.78;;;24.60;79.90;;;;;;5092805;28;20224;-61
2023/07/03 07:14:00;;;;;;;17.17;7.07;;;24.60;80.50;;;;;;5092634;28;20208;-61
2023/07/03 07:16:28;;;;;;;15.35;6.78;;;24.60;80.50;;;;;;5092109;28;20684;-60
2023/07/03 07:18:57;;;;;;;17.88;7.47;;;24.80;80.60;;;;;;5109251;22;20224;-52
2023/07/03 07:21:25;;;;;;;19.42;8.77;;;24.80;80.10;;;;;;5085522;28;20199;-53
2023/07/03 07:23:53;;;;;;;18.00;8.20;;;24.80;79.80;;;;;;5094271;28;20207;-54
2023/07/03 07:26:21;;;;;;;16.88;8.48;;;24.70;79.50;;;;;;5093505;28;20211;-54
2023/07/03 07:28:48;;;;;;;19.98;9.05;;;24.80;79.40;;;;;;5093931;28;20232;-53
2023/07/03 07:31:19;;;;;;;19.20;8.38;;;24.80;79.50;;;;;;5094428;28;20220;-53
2023/07/03 07:33:46;;;;;;;16.73;7.90;;;24.70;80.00;;;;;;5094615;28;20268;-53
2023/07/03 07:36:13;;;;;;;20.98;8.75;;;24.70;80.00;;;;;;5094047;28;20212;-52
2023/07/03 07:38:41;;;;;;;15.77;7.60;;;24.70;80.00;;;;;;5094407;28;20327;-54
2023/07/03 07:41:08;;;;;;;19.90;7.18;;;24.70;80.80;;;;;;5093862;28;20582;-53
2023/07/03 07:43:35;;;;;;;16.15;7.70;;;24.70;81.40;;;;;;5093601;28;20258;-53
2023/07/03 07:46:01;;;;;;;17.33;7.82;;;24.70;81.90;;;;;;5092719;28;20218;-53
2023/07/03 07:48:29;;;;;;;20.50;8.27;;;24.80;82.10;;;;;;5092463;28;20237;-52
2023/07/03 07:50:55;;;;;;;17.00;8.77;;;24.90;81.80;;;;;;5093173;28;20635;-53
2023/07/03 07:53:22;;;;;;;13.90;7.88;;;24.90;81.80;;;;;;5092535;28;20694;-53
2023/07/03 07:55:50;;;;;;;16.65;8.57;;;25.00;81.60;;;;;;5092337;28;20249;-53
2023/07/03 07:58:17;;;;;;;13.68;7.95;;;25.10;81.50;;;;;;5092547;28;20305;-52
2023/07/03 08:00:44;;;;;;;13.50;7.53;;;25.00;81.70;;;;;;5092606;28;20203;-52
2023/07/03 08:03:11;;;;;;;14.20;7.25;;;25.10;82.20;;;;;;5092333;28;20245;-52
2023/07/03 08:05:38;;;;;;;15.63;7.63;;;25.40;81.20;;;;;;5092234;28;20234;-58
2023/07/03 08:08:06;;;;;;;12.02;6.32;;;25.50;80.70;;;;;;5092214;28;20310;-54
2023/07/03 08:10:32;;;;;;;18.85;7.97;;;25.70;80.80;;;;;;5092089;28;20723;-53
2023/07/03 08:13:00;;;;;;;15.32;7.90;;;25.60;80.80;;;;;;5091991;28;20663;-53
2023/07/03 08:15:27;;;;;;;14.07;7.15;;;25.60;80.50;;;;;;5092165;28;20253;-53
2023/07/03 08:17:54;;;;;;;15.38;7.55;;;25.40;81.10;;;;;;5091912;28;20339;-52
2023/07/03 08:20:21;;;;;;;17.42;8.82;;;25.40;81.30;;;;;;5092199;28;20212;-54
2023/07/03 08:22:48;;;;;;;16.08;7.95;;;25.40;81.60;;;;;;5092300;28;20215;-55
2023/07/03 08:25:15;;;;;;;14.70;7.32;;;25.40;82.00;;;;;;5092417;28;20277;-56
2023/07/03 08:27:47;;;;;;;16.48;7.88;;;25.40;82.40;;;;;;5091486;28;20231;-54
2023/07/03 08:30:15;;;;;;;14.43;7.35;;;25.40;82.30;;;;;;5092010;28;20227;-54
2023/07/03 08:32:43;;;;;;;14.95;7.45;;;25.60;82.40;;;;;;5092119;28;20811;-54
2023/07/03 08:35:09;;;;;;;17.48;8.38;;;26.00;81.10;;;;;;5092184;28;20208;-57
2023/07/03 08:37:36;;;;;;;15.18;7.72;;;26.60;78.90;;;;;;5091266;28;20224;-53
2023/07/03 08:40:05;;;;;;;11.48;7.03;;;27.00;77.60;;;;;;5092264;28;20635;-55
2023/07/03 08:42:36;;;;;;;18.77;7.30;;;27.20;76.70;;;;;;5092380;28;20257;-53
2023/07/03 08:45:05;;;;;;;12.57;7.13;;;27.20;76.20;;;;;;5091879;28;20690;-54
2023/07/03 08:47:34;;;;;;;19.70;7.90;;;26.90;76.40;;;;;;5091715;28;20730;-55
2023/07/03 08:50:03;;;;;;;17.98;8.02;;;26.30;77.40;;;;;;5091465;28;20200;-55
2023/07/03 08:52:37;;;;;;;16.70;7.70;;;26.10;78.00;;;;;;5091750;28;20283;-55
2023/07/03 08:55:07;;;;;;;13.45;6.72;;;26.00;77.80;;;;;;5091576;28;20236;-55
2023/07/03 08:57:36;;;;;;;11.23;6.60;;;26.00;77.70;;;;;;5091058;28;20236;-56
2023/07/03 09:00:05;;;;;;;17.02;6.82;;;25.80;78.70;;;;;;5093640;28;20671;-54
2023/07/03 09:02:41;;;;;;;12.55;6.03;;;26.20;77.40;;;;;;5095523;28;20264;-55
2023/07/03 09:05:21;;;;;;;9.88;5.95;;;26.50;75.60;;;;;;5095816;28;20208;-54
2023/07/03 09:07:53;;;;;;;13.25;6.22;;;26.80;75.00;;;;;;5095523;28;20257;-54
2023/07/03 09:10:24;;;;;;;14.63;6.72;;;27.30;73.60;;;;;;5095539;28;20729;-55
2023/07/03 09:12:56;;;;;;;12.80;6.78;;;27.60;72.60;;;;;;5095385;28;20296;-54
2023/07/03 09:15:27;;;;;;;16.15;6.57;;;27.80;71.50;;;;;;5095515;28;20204;-55
2023/07/03 09:17:58;;;;;;;14.25;5.93;;;28.00;70.90;;;;;;5095045;28;20239;-54
2023/07/03 09:20:27;;;;;;;11.40;6.45;;;28.20;70.30;;;;;;5095899;28;20211;-56
2023/07/03 09:23:00;;;;;;;11.48;6.63;;;28.10;69.30;;;;;;5095549;28;20577;-55
2023/07/03 09:25:32;;;;;;;11.88;6.40;;;28.00;69.90;;;;;;5095089;28;20258;-55
2023/07/03 09:28:01;;;;;;;11.77;6.10;;;27.90;69.30;;;;;;5095108;28;20224;-55
2023/07/03 09:30:28;;;;;;;12.07;5.78;;;27.80;69.40;;;;;;5095439;28;20204;-55
2023/07/03 09:32:57;;;;;;;12.90;6.57;;;27.90;69.60;;;;;;5095465;28;20220;-54
2023/07/03 09:35:25;;;;;;;15.07;6.38;;;27.90;68.20;;;;;;5095093;28;20211;-54
2023/07/03 09:38:01;;;;;;;13.57;5.60;;;27.90;68.00;;;;;;5094723;28;20224;-54
2023/07/03 09:40:33;;;;;;;12.02;6.65;;;27.70;67.70;;;;;;5095022;28;20706;-54
2023/07/03 09:43:00;;;;;;;16.05;5.88;;;27.70;68.10;;;;;;5095096;28;20262;-54
2023/07/03 09:45:32;;;;;;;12.80;5.53;;;27.90;68.00;;;;;;5094995;28;20208;-54
2023/07/03 09:48:02;;;;;;;14.13;6.18;;;28.00;67.80;;;;;;5094526;28;20728;-56
2023/07/03 09:50:34;;;;;;;11.80;5.57;;;27.90;67.80;;;;;;5095036;28;20694;-55
2023/07/03 09:53:02;;;;;;;13.00;5.88;;;27.80;67.80;;;;;;5095020;28;20446;-55
2023/07/03 09:55:30;;;;;;;13.30;5.68;;;27.70;67.90;;;;;;5094700;28;20223;-55
2023/07/03 09:57:57;;;;;;;10.90;5.60;;;27.80;67.30;;;;;;5094399;28;20228;-55
2023/07/03 10:00:25;;;;;;;10.68;5.80;;;27.80;66.50;;;;;;5094698;28;20242;-55
2023/07/03 10:02:53;;;;;;;11.25;5.30;;;28.00;65.90;;;;;;5094519;28;20200;-55
2023/07/03 10:05:29;;;;;;;13.20;5.53;;;28.10;65.50;;;;;;5094618;28;20200;-55
2023/07/03 10:08:01;;;;;;;11.20;5.43;;;28.00;65.10;;;;;;5094478;28;20607;-55
2023/07/03 10:10:29;;;;;;;11.27;5.13;;;27.70;65.60;;;;;;5094688;28;20295;-54
2023/07/03 10:13:02;;;;;;;10.73;5.22;;;27.50;66.50;;;;;;5094201;28;20703;-56
2023/07/03 10:15:34;;;;;;;11.60;5.70;;;27.50;66.80;;;;;;5094316;28;20204;-55
2023/07/03 10:18:03;;;;;;;11.98;5.30;;;27.60;66.50;;;;;;5094012;28;20232;-55
2023/07/03 10:20:35;;;;;;;10.48;5.18;;;27.70;65.90;;;;;;5094533;28;20209;-56
2023/07/03 10:23:05;;;;;;;10.13;5.28;;;27.80;64.80;;;;;;5094398;28;20224;-54
2023/07/03 10:25:37;;;;;;;9.57;5.00;;;27.80;64.70;;;;;;5094160;28;20204;-56
2023/07/03 10:28:22;;;;;;;9.23;4.78;;;28.20;63.10;;;;;;5094300;28;20304;-55
2023/07/03 10:30:54;;;;;;;11.10;4.70;;;28.50;61.30;;;;;;5094290;28;20243;-54
2023/07/03 10:33:28;;;;;;;7.68;4.07;;;28.70;61.40;;;;;;5094237;28;20642;-55
2023/07/03 10:35:57;;;;;;;9.43;4.45;;;29.00;57.90;;;;;;5093911;28;20215;-55
2023/07/03 10:38:33;;;;;;;9.50;3.95;;;29.10;58.50;;;;;;5093778;28;20314;-56
2023/07/03 10:41:07;;;;;;;8.57;4.30;;;29.30;58.40;;;;;;5094113;28;20239;-56
2023/07/03 10:43:37;;;;;;;11.18;3.90;;;29.20;58.70;;;;;;5094319;28;20204;-54
2023/07/03 10:46:09;;;;;;;9.25;3.92;;;29.00;58.90;;;;;;5093535;28;20212;-56
2023/07/03 10:48:37;;;;;;;7.72;4.38;;;28.90;58.70;;;;;;5093644;28;20235;-54
2023/07/03 10:51:17;;;;;;;10.60;3.75;;;28.70;59.20;;;;;;5093903;28;20223;-56
2023/07/03 10:53:52;;;;;;;7.80;4.15;;;28.50;59.70;;;;;;5094252;28;20212;-55
2023/07/03 10:56:25;;;;;;;9.10;3.95;;;28.30;59.20;;;;;;5093496;28;20580;-55
2023/07/03 10:59:04;;;;;;;7.55;3.33;;;28.40;60.30;;;;;;5093490;28;20290;-54
2023/07/03 11:01:39;;;;;;;8.10;4.00;;;28.60;59.90;;;;;;5093624;28;20204;-54
2023/07/03 11:04:14;;;;;;;8.18;3.95;;;28.70;59.90;;;;;;5094121;28;20204;-56
2023/07/03 11:06:49;;;;;;;7.70;3.20;;;28.80;59.80;;;;;;5093183;28;20261;-56
2023/07/03 11:09:22;;;;;;;8.20;3.70;;;28.70;60.00;;;;;;5093375;28;20208;-55
2023/07/03 11:11:56;;;;;;;8.18;3.78;;;28.60;59.90;;;;;;5093268;28;20231;-54
2023/07/03 11:14:31;;;;;;;9.45;3.88;;;28.50;61.80;;;;;;5093574;28;20204;-54
2023/07/03 11:17:05;;;;;;;7.72;3.78;;;28.50;62.00;;;;;;5092928;28;20214;-54
2023/07/03 11:19:37;;;;;;;8.40;4.15;;;28.50;62.20;;;;;;5093284;28;20215;-54
2023/07/03 11:22:13;;;;;;;8.10;3.53;;;28.40;62.20;;;;;;5093064;28;20211;-56
2023/07/03 11:24:51;;;;;;;6.80;3.60;;;28.50;62.80;;;;;;5092586;28;20207;-54
2023/07/03 11:27:28;;;;;;;8.07;3.40;;;28.80;61.50;;;;;;5092807;28;20300;-54
2023/07/03 11:29:55;;;;;;;9.43;4.10;;;29.00;61.30;;;;;;5093149;28;20490;-55
2023/07/03 11:32:23;;;;;;;6.53;3.63;;;29.10;60.40;;;;;;5092719;28;20699;-55
2023/07/03 11:34:52;;;;;;;9.20;3.60;;;29.20;60.50;;;;;;5092988;28;20208;-55
2023/07/03 11:37:45;;;;;;;6.50;3.42;;;29.30;61.40;;;;;;5092624;28;20228;-55
2023/07/03 11:40:33;;;;;;;11.13;3.72;;;29.10;61.40;;;;;;5092879;28;20244;-54
2023/07/03 11:43:20;;;;;;;9.65;3.33;;;28.90;61.20;;;;;;5092677;28;20242;-56
2023/07/03 11:46:06;;;;;;;8.77;4.38;;;28.60;63.00;;;;;;5092338;28;20212;-54
2023/07/03 11:48:41;;;;;;;6.90;3.63;;;27.80;64.80;;;;;;5089954;28;20236;-55
2023/07/03 11:51:10;;;;;;;11.73;4.03;;;27.20;65.80;;;;;;5092446;28;20281;-51
2023/07/03 11:53:43;;;;;;;8.45;3.88;;;26.90;67.50;;;;;;5092202;28;20256;-53
2023/07/03 11:56:14;;;;;;;10.77;4.18;;;26.80;67.70;;;;;;5092377;28;20261;-53
2023/07/03 11:58:41;;;;;;;8.50;3.83;;;26.80;68.60;;;;;;5092397;28;20323;-51
2023/07/03 12:01:25;;;;;;;8.93;3.70;;;26.80;67.60;;;;;;5092277;28;20212;-52
2023/07/03 12:03:54;;;;;;;8.82;3.72;;;26.50;68.70;;;;;;5092301;28;20279;-52
2023/07/03 12:06:46;;;;;;;8.02;3.65;;;26.20;69.70;;;;;;5092257;28;20204;-52
2023/07/03 12:09:29;;;;;;;9.75;3.90;;;26.20;69.70;;;;;;5092419;28;20299;-52
2023/07/03 12:12:16;;;;;;;7.22;3.10;;;26.00;70.40;;;;;;5092080;28;20294;-50
2023/07/03 12:15:09;;;;;;;7.15;3.80;;;25.80;71.00;;;;;;5092536;28;20249;-50
2023/07/03 12:17:37;;;;;;;7.20;3.08;;;25.70;72.10;;;;;;5091807;28;20232;-51
2023/07/03 12:20:06;;;;;;;7.57;3.42;;;25.80;71.80;;;;;;5092219;28;20234;-50
2023/07/03 12:22:38;;;;;;;7.05;3.25;;;25.80;72.50;;;;;;5091961;28;20207;-50
2023/07/03 12:25:08;;;;;;;6.97;3.55;;;25.70;72.00;;;;;;5092082;28;20211;-52
2023/07/03 12:27:39;;;;;;;8.35;3.53;;;25.70;73.00;;;;;;5091521;28;20616;-51
2023/07/03 12:30:10;;;;;;;7.88;3.35;;;25.60;74.00;;;;;;5092351;28;20204;-51
2023/07/03 12:32:37;;;;;;;10.45;3.67;;;25.70;73.10;;;;;;5091608;28;20307;-51
2023/07/03 12:35:13;;;;;;;11.40;4.20;;;26.00;72.80;;;;;;5091451;28;20207;-53
2023/07/03 12:37:45;;;;;;;9.52;3.63;;;25.80;72.30;;;;;;5091707;28;20660;-50
2023/07/03 12:40:16;;;;;;;9.50;3.50;;;25.60;73.70;;;;;;5091912;28;20318;-50
2023/07/03 12:42:46;;;;;;;9.02;3.50;;;25.50;73.50;;;;;;5091618;28;20200;-53
2023/07/03 12:45:15;;;;;;;6.53;3.33;;;25.40;73.00;;;;;;5091683;28;20200;-51
2023/07/03 12:47:42;;;;;;;9.68;3.38;;;25.50;73.30;;;;;;5091658;28;20236;-51